x

Devils Island, Wi (disw3) Weather Station

12:00pm - Mon 2nd Mar 2015 All times are CST. -6 hours from GMT.

  • Wind
    15mph, 17mph gusts
  • Air Temp 20°f
  • Sea Pressure 1031mb
  • Devils Island, Wi
  • Devils Island, Wi

More Historic Weather Station data

Upgrade to MSW Pro to gain access to the past 30 days of data for over 8000 Wavebouys and Weather Stations around the globe.

Join Pro

Comparision Forecast

View Surf forecast
   
Mon 03/02 12:00pm 15 17 mph 1031mb 20f
11:00am 17 21 mph 1031.8mb 17f
10:00am 16 17 mph 1031.2mb 17f
9:00am 10 13 mph 1031.1mb 15f
8:00am 9 11 mph 1030.9mb 14f
7:00am 16 17 mph 1029.9mb 17f
6:00am 9 11 mph 1030.2mb 16f
5:00am 15 18 mph 1029.8mb 17f
4:00am 15 21 mph 1029.4mb 17f
3:00am 15 17 mph 1028.8mb 18f
2:00am 15 18 mph 1028.2mb 18f
1:00am 23 26 mph 1027.6mb 19f
12:00am 29 33 mph 1026.5mb 20f
Sun 03/01 11:00pm 26 33 mph 1025.3mb 20f
10:00pm 29 32 mph 1024.3mb 21f
9:00pm 29 33 mph 1023.3mb 22f
8:00pm 24 28 mph 1022.3mb 23f
7:00pm 26 32 mph 1021.4mb 24f
6:00pm 22 28 mph 1020.3mb 25f
5:00pm 21 25 mph 1020mb 24f
4:00pm 24 32 mph 1019.2mb 24f
3:00pm 30 33 mph 1019.2mb 24f
2:00pm 24 30 mph 1019.7mb 22f
1:00pm 20 24 mph 1020.6mb 20f
12:00pm 22 26 mph 1021.3mb 19f
11:00am 24 30 mph 1021.5mb 19f
10:00am 15 22 mph 1021.7mb 17f
9:00am 18 22 mph 1021.9mb 17f
8:00am 17 23 mph 1021.9mb 17f
7:00am 21 25 mph 1022.2mb 16f
6:00am 17 22 mph 1022.9mb 16f
5:00am 18 25 mph 1023.4mb 16f
4:00am 21 25 mph 1023.5mb 16f
3:00am 14 18 mph 1024.1mb 15f
2:00am 13 16 mph 1025.1mb 15f
1:00am 15 17 mph 1025.6mb 15f
12:00am 11 16 mph 1025.8mb 15f
Sat 02/28 11:00pm 13 18 mph 1026.3mb 16f
10:00pm 10 13 mph 1027mb 16f
9:00pm 11 14 mph 1027.4mb 17f
8:00pm 10 13 mph 1027.7mb 18f
7:00pm 10 13 mph 1027.7mb 19f
6:00pm 10 14 mph 1027.6mb 20f
5:00pm 9 13 mph 1027.8mb 22f
4:00pm 10 14 mph 1028.5mb 23f
3:00pm 2 3 mph 1029.5mb 22f
2:00pm 6 8 mph 1030.4mb 20f
1:00pm 8 10 mph 1031.5mb 17f
12:00pm 6 8 mph 1033mb 15f
11:00am 3 7 mph 1033.6mb 14f
10:00am 6 8 mph 1033.7mb 9f
9:00am 10 13 mph 1034mb 8f
8:00am 7 9 mph 1034.2mb 6f
7:00am 11 16 mph 1033.8mb 7f
6:00am 15 20 mph 1033.9mb 7f
5:00am 16 20 mph 1033.8mb 7f
4:00am 18 22 mph 1033.5mb 8f
3:00am 16 21 mph 1033.3mb 9f
2:00am 18 22 mph 1033.1mb 10f
1:00am 18 23 mph 1032.7mb 11f
12:00am 22 24 mph 1032.6mb 13f
Fri 02/27 11:00pm 17 22 mph 1032.2mb 13f
10:00pm 17 21 mph 1032.1mb 14f
9:00pm 15 18 mph 1032mb 14f
8:00pm 14 18 mph 1031.5mb 15f
7:00pm 13 15 mph 1031mb 15f
6:00pm 16 20 mph 1030.6mb 17f
5:00pm 17 22 mph 1030.5mb 17f
4:00pm 18 23 mph 1030.9mb 17f
3:00pm 21 24 mph 1031.2mb 15f
2:00pm 22 24 mph 1031.5mb 12f
1:00pm 20 24 mph 1032.2mb 10f
12:00pm 20 23 mph 1032.9mb 7f
11:00am 20 23 mph 1033.2mb 5f
10:00am 20 24 mph 1033mb 4f
9:00am 18 23 mph 1033mb 2f
8:00am 15 17 mph 1033mb 2f
7:00am 13 17 mph 1032.5mb 2f
6:00am 13 16 mph 1032.2mb 3f
5:00am 14 15 mph 1031.8mb 4f
4:00am 13 15 mph 1031.4mb 5f
3:00am 11 14 mph 1031.5mb 5f
2:00am 10 13 mph 1031.5mb 6f
1:00am 11 13 mph 1031.3mb 6f
12:00am 10 13 mph 1031.5mb 6f
Thu 02/26 11:00pm 15 17 mph 1031.4mb 7f
10:00pm 17 21 mph 1031.2mb 7f
9:00pm 16 20 mph 1031mb 8f
8:00pm 18 22 mph 1030.6mb 9f